Aviation Digital Data Service (ADDS)

Output produced by METARs form (2128 UTC 20 October 2018)
found at http://www.aviationweather.gov/metar/data/
 
METAR text: KVIH 202053Z AUTO 33017G26KT 10SM CLR 17/M01 A3018 RMK AO2 PK WND 33033/2029 SLP219 T01671011 55002
Conditions at: KVIH (VICHY/ROLLA , MO, US) observed 2053 UTC 20 October 2018
Temperature: 16.7°C (62°F)
Dewpoint: -1.1°C (30°F) [RH = 30%]
Pressure (altimeter): 30.18 inches Hg (1022.1 mb)
[Sea-level pressure: 1021.9 mb]
Winds: from the NNW (330 degrees) at 20 MPH (17 knots; 8.7 m/s)
gusting to 30 MPH (26 knots; 13.4 m/s)
Visibility: 10 or more miles (16+ km)
Ceiling: at least 12,000 feet AGL
Clouds: sky clear below 12,000 feet AGL
Weather: automated observation with no human augmentation;
there may or may not be significant weather present at this time